Time;durP1;ratioP1;P1;durP2;ratioP2;P2;SDS_P1;SDS_P2;PMS_P1;PMS_P2;Temp;Humidity;BMP_temperature;BMP_pressure;BME280_temperature;BME280_humidity;BME280_pressure;Samples;Min_cycle;Max_cycle;Signal;HPM_P1;HPM_P2
2022/12/26 00:00:55;;;;;;;5.20;3.70;;;;;;;;;;5033727;28;20415;-41
2022/12/26 00:03:20;;;;;;;7.03;3.85;;;;;;;;;;5033623;28;20355;-40
2022/12/26 00:05:46;;;;;;;7.07;3.42;;;;;;;;;;5033535;28;20025;-40
2022/12/26 00:08:11;;;;;;;8.45;4.20;;;;;;;;;;5033145;28;20042;-40
2022/12/26 00:10:36;;;;;;;7.47;3.90;;;;;;;;;;5033336;28;20040;-41
2022/12/26 00:13:02;;;;;;;5.28;2.97;;;;;;;;;;5033365;28;20096;-40
2022/12/26 00:15:27;;;;;;;3.42;2.92;;;;;;;;;;5033177;28;20025;-40
2022/12/26 00:17:52;;;;;;;7.55;3.22;;;;;;;;;;5032555;28;20392;-41
2022/12/26 00:20:18;;;;;;;4.60;2.53;;;;;;;;;;5033077;28;20706;-41
2022/12/26 00:22:43;;;;;;;5.80;2.90;;;;;;;;;;5033095;28;20026;-40
2022/12/26 00:25:09;;;;;;;3.90;2.78;;;;;;;;;;5033047;28;20121;-41
2022/12/26 00:27:34;;;;;;;6.03;3.20;;;;;;;;;;5032981;28;20029;-41
2022/12/26 00:29:59;;;;;;;8.63;4.30;;;;;;;;;;5031585;28;20500;-40
2022/12/26 00:32:25;;;;;;;9.57;3.90;;;;;;;;;;5033020;28;20074;-40
2022/12/26 00:34:50;;;;;;;9.18;4.15;;;;;;;;;;5032797;28;20039;-40
2022/12/26 00:37:15;;;;;;;6.95;3.30;;;;;;;;;;5032971;28;20032;-40
2022/12/26 00:39:41;;;;;;;6.85;3.70;;;;;;;;;;5014970;28;20168;-40
2022/12/26 00:42:06;;;;;;;8.18;3.22;;;;;;;;;;5032611;28;20044;-41
2022/12/26 00:44:31;;;;;;;7.47;3.63;;;;;;;;;;5032591;28;20037;-40
2022/12/26 00:46:56;;;;;;;7.00;3.75;;;;;;;;;;5032561;28;20061;-40
2022/12/26 00:49:23;;;;;;;7.13;3.15;;;;;;;;;;5032563;28;20029;-40
2022/12/26 00:51:48;;;;;;;10.00;4.20;;;;;;;;;;5032792;28;20036;-41
2022/12/26 00:54:13;;;;;;;5.75;3.63;;;;;;;;;;5032561;28;20056;-40
2022/12/26 00:56:39;;;;;;;8.73;3.55;;;;;;;;;;5032515;28;20032;-41
2022/12/26 00:59:04;;;;;;;8.55;4.38;;;;;;;;;;5014945;28;20377;-41
2022/12/26 01:01:29;;;;;;;7.20;4.53;;;;;;;;;;5032377;28;20076;-40
2022/12/26 01:03:56;;;;;;;8.30;4.25;;;;;;;;;;5032608;28;20029;-41
2022/12/26 01:06:21;;;;;;;11.63;4.60;;;;;;;;;;5032073;28;20013;-41
2022/12/26 01:08:46;;;;;;;11.65;4.82;;;;;;;;;;5032548;28;20494;-41
2022/12/26 01:11:13;;;;;;;9.55;4.45;;;;;;;;;;5032104;28;20041;-40
2022/12/26 01:13:38;;;;;;;9.02;3.97;;;;;;;;;;5032358;28;20036;-41
2022/12/26 01:16:04;;;;;;;12.70;5.38;;;;;;;;;;5032154;28;20021;-41
2022/12/26 01:18:30;;;;;;;9.60;3.58;;;;;;;;;;5030758;28;20067;-42
2022/12/26 01:21:07;;;;;;;10.15;5.00;;;;;;;;;;5031891;28;20396;-41
2022/12/26 01:23:32;;;;;;;10.07;5.13;;;;;;;;;;5032010;28;20095;-40
2022/12/26 01:25:57;;;;;;;8.27;3.03;;;;;;;;;;5032216;28;20021;-40
2022/12/26 01:28:23;;;;;;;6.38;3.40;;;;;;;;;;5030885;28;20036;-41
2022/12/26 01:30:49;;;;;;;7.80;4.45;;;;;;;;;;5031997;28;20037;-40
2022/12/26 01:33:14;;;;;;;11.55;5.45;;;;;;;;;;5031743;28;20550;-40
2022/12/26 01:35:47;;;;;;;11.90;4.55;;;;;;;;;;5031898;28;20045;-41
2022/12/26 01:38:13;;;;;;;11.15;4.88;;;;;;;;;;5013921;28;20377;-40
2022/12/26 01:40:41;;;;;;;14.10;5.78;;;;;;;;;;5031963;28;20036;-41
2022/12/26 01:43:10;;;;;;;7.32;3.83;;;;;;;;;;5031688;28;20022;-40
2022/12/26 01:45:35;;;;;;;7.25;4.20;;;;;;;;;;5031503;28;20028;-40
2022/12/26 01:48:00;;;;;;;10.23;4.20;;;;;;;;;;5031807;28;20033;-41
2022/12/26 01:50:28;;;;;;;8.10;4.00;;;;;;;;;;5031736;28;20440;-41
2022/12/26 01:52:55;;;;;;;6.43;4.55;;;;;;;;;;5031583;28;20072;-40
2022/12/26 01:55:21;;;;;;;5.97;3.30;;;;;;;;;;5031405;28;20028;-41
2022/12/26 01:57:49;;;;;;;18.05;7.22;;;;;;;;;;5031734;28;20037;-40
2022/12/26 02:00:14;;;;;;;13.25;5.60;;;;;;;;;;5013640;28;20014;-41
2022/12/26 02:05:33;;;;;;;14.23;5.60;;;;;;;;;;5031356;28;20530;-41
2022/12/26 02:08:00;;;;;;;16.73;7.25;;;;;;;;;;5031625;28;20077;-40
2022/12/26 02:10:25;;;;;;;16.30;7.07;;;;;;;;;;5031119;28;20105;-41
2022/12/26 02:12:51;;;;;;;8.77;5.18;;;;;;;;;;5031295;28;20116;-40
2022/12/26 02:15:17;;;;;;;14.50;5.32;;;;;;;;;;5031211;28;20125;-41
2022/12/26 02:17:45;;;;;;;14.90;5.85;;;;;;;;;;5031469;28;20120;-42
2022/12/26 02:20:16;;;;;;;17.38;8.32;;;;;;;;;;5013454;28;20056;-41
2022/12/26 02:23:14;;;;;;;11.98;5.18;;;;;;;;;;5031460;28;20041;-40
2022/12/26 02:25:58;;;;;;;12.25;6.00;;;;;;;;;;4997568;28;20148;-41
2022/12/26 02:28:42;;;;;;;9.77;5.95;;;;;;;;;;5030963;28;20038;-40
2022/12/26 02:31:11;;;;;;;10.07;5.22;;;;;;;;;;5031349;28;20036;-41
2022/12/26 02:33:36;;;;;;;14.35;5.32;;;;;;;;;;5031148;28;20022;-40
2022/12/26 02:36:01;;;;;;;16.05;6.32;;;;;;;;;;5031439;28;20033;-41
2022/12/26 02:38:38;;;;;;;10.98;6.28;;;;;;;;;;5030967;28;20037;-40
2022/12/26 02:41:19;;;;;;;14.93;7.47;;;;;;;;;;5033577;28;20434;-41
2022/12/26 02:47:01;;;;;;;30.25;11.95;;;;;;;;;;5034994;28;20083;-41
2022/12/26 02:47:02;;;;;;;16.67;9.18;;;;;;;;;;5034532;28;20049;-40
2022/12/26 03:13:09;;;;;;;19.00;8.35;;;;;;;;;;5034772;28;20044;-41
2022/12/26 03:14:55;;;;;;;16.80;8.82;;;;;;;;;;5034411;28;20032;-41
2022/12/26 03:17:37;;;;;;;14.13;7.30;;;;;;;;;;5033795;28;20041;-40
2022/12/26 03:20:08;;;;;;;13.63;8.05;;;;;;;;;;5034508;28;20045;-41
2022/12/26 03:22:40;;;;;;;13.02;6.75;;;;;;;;;;5034282;28;20472;-41
2022/12/26 03:27:53;;;;;;;21.83;9.05;;;;;;;;;;5034038;28;20048;-41
2022/12/26 03:33:03;;;;;;;18.00;7.40;;;;;;;;;;5016296;28;20610;-41
2022/12/26 03:35:30;;;;;;;16.58;7.35;;;;;;;;;;5033951;28;20072;-41
2022/12/26 03:37:57;;;;;;;14.93;6.80;;;;;;;;;;5034228;28;20033;-40
2022/12/26 04:20:00;;;;;;;;;;;;;;;;;;5033581;28;20137;-40
2022/12/26 04:44:44;;;;;;;19.20;8.48;;;;;;;;;;5032758;28;20033;-40
2022/12/26 04:47:10;;;;;;;20.60;8.77;;;;;;;;;;5032680;28;20053;-40
2022/12/26 04:52:53;;;;;;;11.77;6.47;;;;;;;;;;5032596;28;20040;-41
2022/12/26 04:55:11;;;;;;;17.48;9.20;;;;;;;;;;5032411;28;20060;-41
2022/12/26 04:57:36;;;;;;;22.17;10.85;;;;;;;;;;5032540;28;20022;-40
2022/12/26 05:00:03;;;;;;;15.65;8.65;;;;;;;;;;5032378;28;20026;-40
2022/12/26 05:10:40;;;;;;;13.52;7.15;;;;;;;;;;5032300;28;20071;-40
2022/12/26 05:13:06;;;;;;;13.23;7.53;;;;;;;;;;5032549;28;20071;-41
2022/12/26 05:28:40;;;;;;;12.23;8.27;;;;;;;;;;5032277;28;20021;-40
2022/12/26 05:29:12;;;;;;;16.88;6.93;;;;;;;;;;5032062;28;20037;-41
2022/12/26 05:31:38;;;;;;;14.07;7.22;;;;;;;;;;5031877;28;20021;-41
2022/12/26 05:34:07;;;;;;;14.02;7.40;;;;;;;;;;5032086;28;20567;-40
2022/12/26 05:36:44;;;;;;;19.33;7.75;;;;;;;;;;5031658;28;20120;-40
2022/12/26 05:39:10;;;;;;;16.10;8.48;;;;;;;;;;5032026;28;20055;-40
2022/12/26 05:41:36;;;;;;;14.98;7.97;;;;;;;;;;5031719;28;20473;-40
2022/12/26 05:44:02;;;;;;;17.50;8.27;;;;;;;;;;5031560;28;20041;-40
2022/12/26 05:46:27;;;;;;;16.83;9.13;;;;;;;;;;5013645;28;20045;-40
2022/12/26 05:48:52;;;;;;;24.15;8.77;;;;;;;;;;5032040;28;20040;-40
2022/12/26 05:51:18;;;;;;;12.70;7.40;;;;;;;;;;5013794;28;20029;-41
2022/12/26 05:53:43;;;;;;;14.45;8.32;;;;;;;;;;5013869;28;20033;-40
2022/12/26 05:56:10;;;;;;;19.50;8.48;;;;;;;;;;5031821;28;20052;-41
2022/12/26 05:58:36;;;;;;;14.50;7.80;;;;;;;;;;5031371;28;20592;-40
2022/12/26 06:01:05;;;;;;;12.13;7.90;;;;;;;;;;5031412;28;20028;-40
2022/12/26 06:03:31;;;;;;;17.48;7.95;;;;;;;;;;5031591;28;20373;-40
2022/12/26 06:05:56;;;;;;;17.77;7.25;;;;;;;;;;5031656;28;20048;-41
2022/12/26 06:08:22;;;;;;;14.00;7.55;;;;;;;;;;5031462;28;20081;-40
2022/12/26 06:10:47;;;;;;;12.82;6.85;;;;;;;;;;5031406;28;20053;-40
2022/12/26 06:13:12;;;;;;;11.43;6.53;;;;;;;;;;5031266;28;20403;-41
2022/12/26 06:15:38;;;;;;;13.88;7.20;;;;;;;;;;5035902;28;20028;-40
2022/12/26 06:18:04;;;;;;;12.95;5.95;;;;;;;;;;5038158;28;20035;-40
2022/12/26 06:20:29;;;;;;;7.75;4.40;;;;;;;;;;5037936;28;20087;-41
2022/12/26 06:22:54;;;;;;;14.25;7.38;;;;;;;;;;5038103;28;20040;-40
2022/12/26 06:25:20;;;;;;;13.60;7.18;;;;;;;;;;5020020;28;20416;-41
2022/12/26 06:27:45;;;;;;;14.88;4.82;;;;;;;;;;5037942;28;20033;-40
2022/12/26 06:30:11;;;;;;;13.50;6.28;;;;;;;;;;5037756;28;20025;-43
2022/12/26 06:32:36;;;;;;;9.90;5.68;;;;;;;;;;5037675;28;20025;-40
2022/12/26 06:35:01;;;;;;;12.13;6.18;;;;;;;;;;5037989;28;20096;-40
2022/12/26 06:37:27;;;;;;;11.30;6.50;;;;;;;;;;5037573;28;20069;-41
2022/12/26 06:39:53;;;;;;;13.43;5.70;;;;;;;;;;5037535;28;20021;-41
2022/12/26 06:42:18;;;;;;;16.08;6.95;;;;;;;;;;5037565;28;20029;-41
2022/12/26 06:44:43;;;;;;;14.88;6.18;;;;;;;;;;5037977;28;20079;-40
2022/12/26 06:47:09;;;;;;;9.43;5.93;;;;;;;;;;5037438;28;20045;-40
2022/12/26 06:49:34;;;;;;;13.70;7.07;;;;;;;;;;5037500;28;20037;-40
2022/12/26 06:52:00;;;;;;;14.52;6.45;;;;;;;;;;5037629;28;20037;-40
2022/12/26 06:54:25;;;;;;;22.90;9.43;;;;;;;;;;5037689;28;20060;-40
2022/12/26 06:56:50;;;;;;;9.93;5.43;;;;;;;;;;5037568;28;20388;-40
2022/12/26 06:59:16;;;;;;;9.40;5.97;;;;;;;;;;5037394;28;20033;-42
2022/12/26 07:01:42;;;;;;;14.40;6.88;;;;;;;;;;5037855;28;20029;-40
2022/12/26 07:04:08;;;;;;;10.27;5.40;;;;;;;;;;5037566;28;20072;-41
2022/12/26 07:06:34;;;;;;;11.23;5.63;;;;;;;;;;5037242;28;20033;-40
2022/12/26 07:09:04;;;;;;;6.38;5.05;;;;;;;;;;5037437;28;20025;-40
2022/12/26 07:11:31;;;;;;;9.02;5.47;;;;;;;;;;5037403;28;20464;-40
2022/12/26 07:13:56;;;;;;;8.93;6.15;;;;;;;;;;5019804;28;20022;-40
2022/12/26 07:16:22;;;;;;;10.57;5.07;;;;;;;;;;5019762;28;20468;-40
2022/12/26 07:18:48;;;;;;;13.88;6.68;;;;;;;;;;5037275;28;20112;-40
2022/12/26 07:21:14;;;;;;;9.25;5.70;;;;;;;;;;5037359;28;20056;-40
2022/12/26 07:23:40;;;;;;;11.82;5.57;;;;;;;;;;5037569;28;20079;-40
2022/12/26 07:26:06;;;;;;;11.05;5.78;;;;;;;;;;5036753;28;20030;-40
2022/12/26 07:28:31;;;;;;;16.02;4.93;;;;;;;;;;5016632;28;20383;-41
2022/12/26 07:30:58;;;;;;;10.98;6.40;;;;;;;;;;5034196;28;20029;-40
2022/12/26 07:33:24;;;;;;;11.57;5.80;;;;;;;;;;5034183;28;20472;-40
2022/12/26 07:35:49;;;;;;;11.77;5.40;;;;;;;;;;5034291;28;20331;-41
2022/12/26 07:38:16;;;;;;;12.68;7.15;;;;;;;;;;5016332;28;20068;-40
2022/12/26 07:40:41;;;;;;;10.85;5.05;;;;;;;;;;5033951;28;20049;-41
2022/12/26 07:43:07;;;;;;;9.88;5.35;;;;;;;;;;5033980;28;20060;-40
2022/12/26 07:45:32;;;;;;;10.93;5.35;;;;;;;;;;5033835;28;20030;-41
2022/12/26 07:47:57;;;;;;;13.32;4.70;;;;;;;;;;5034046;28;20037;-41
2022/12/26 07:50:23;;;;;;;10.93;4.25;;;;;;;;;;5033691;28;20022;-40
2022/12/26 07:52:49;;;;;;;11.45;6.15;;;;;;;;;;5033722;28;20029;-40
2022/12/26 07:55:14;;;;;;;15.30;5.95;;;;;;;;;;5033929;28;20112;-40
2022/12/26 07:57:40;;;;;;;12.55;6.32;;;;;;;;;;5015986;28;20104;-40
2022/12/26 08:00:05;;;;;;;10.32;6.22;;;;;;;;;;5033465;28;20028;-40
2022/12/26 08:02:37;;;;;;;15.88;5.97;;;;;;;;;;5033581;28;20025;-40
2022/12/26 08:05:02;;;;;;;14.70;5.47;;;;;;;;;;5015689;28;20499;-41
2022/12/26 08:07:28;;;;;;;11.90;4.55;;;;;;;;;;5033346;28;20033;-41
2022/12/26 08:09:53;;;;;;;11.25;5.47;;;;;;;;;;5033654;28;20029;-40
2022/12/26 08:12:20;;;;;;;12.40;5.15;;;;;;;;;;5033441;28;20060;-41
2022/12/26 08:14:46;;;;;;;11.88;6.03;;;;;;;;;;5033285;28;20124;-40
2022/12/26 08:17:12;;;;;;;13.65;6.07;;;;;;;;;;5033522;28;20104;-40
2022/12/26 08:19:38;;;;;;;11.98;6.15;;;;;;;;;;5033099;28;20034;-40
2022/12/26 08:22:04;;;;;;;11.35;5.63;;;;;;;;;;5033176;28;20021;-41
2022/12/26 08:24:29;;;;;;;11.63;4.97;;;;;;;;;;5033076;28;20029;-41
2022/12/26 08:26:55;;;;;;;14.88;6.97;;;;;;;;;;5032981;28;20065;-40
2022/12/26 08:29:20;;;;;;;9.85;5.95;;;;;;;;;;5032918;28;20117;-40
2022/12/26 08:31:46;;;;;;;11.88;5.38;;;;;;;;;;5033022;28;20018;-40
2022/12/26 08:34:12;;;;;;;20.40;5.50;;;;;;;;;;5033155;28;20033;-40
2022/12/26 08:36:37;;;;;;;11.77;6.43;;;;;;;;;;5032847;28;20459;-40
2022/12/26 08:39:03;;;;;;;12.45;7.13;;;;;;;;;;5032395;28;20108;-40
2022/12/26 08:41:28;;;;;;;15.65;5.95;;;;;;;;;;5032776;28;20087;-41
2022/12/26 08:43:53;;;;;;;16.25;6.95;;;;;;;;;;5032740;28;20022;-40
2022/12/26 08:46:19;;;;;;;10.40;5.78;;;;;;;;;;5032469;28;20061;-40
2022/12/26 08:48:45;;;;;;;16.38;7.68;;;;;;;;;;5032440;28;20693;-40
2022/12/26 08:51:37;;;;;;;14.30;6.40;;;;;;;;;;5032572;28;20121;-40
2022/12/26 08:54:03;;;;;;;15.95;6.18;;;;;;;;;;5029663;28;20487;-40
2022/12/26 08:56:28;;;;;;;10.98;5.70;;;;;;;;;;5032650;28;20037;-40
2022/12/26 08:58:54;;;;;;;11.25;6.03;;;;;;;;;;5032486;28;20091;-40
2022/12/26 09:01:21;;;;;;;17.23;6.18;;;;;;;;;;5032327;28;20029;-40
2022/12/26 09:03:47;;;;;;;9.75;5.68;;;;;;;;;;5032562;28;20354;-40
2022/12/26 09:06:13;;;;;;;10.23;5.45;;;;;;;;;;5032370;28;20017;-41
2022/12/26 09:08:39;;;;;;;13.90;6.30;;;;;;;;;;5032249;28;20067;-40
2022/12/26 09:11:12;;;;;;;14.93;6.85;;;;;;;;;;5032197;28;20021;-40
2022/12/26 09:13:37;;;;;;;;;;;;;;;;;;5032573;28;20072;-41
2022/12/26 09:16:23;;;;;;;17.00;5.25;;;;;;;;;;5032158;28;20006;-40
2022/12/26 09:18:52;;;;;;;13.30;5.88;;;;;;;;;;5032131;28;20030;-40
2022/12/26 09:21:17;;;;;;;13.18;6.63;;;;;;;;;;5031986;28;20021;-40
2022/12/26 09:23:43;;;;;;;12.60;5.85;;;;;;;;;;5032047;28;20032;-41
2022/12/26 09:26:14;;;;;;;11.70;6.88;;;;;;;;;;5031969;28;20079;-40
2022/12/26 09:28:40;;;;;;;15.32;5.35;;;;;;;;;;5031798;28;20045;-40
2022/12/26 09:31:06;;;;;;;15.73;6.45;;;;;;;;;;5032055;28;20025;-40
2022/12/26 09:33:35;;;;;;;20.30;7.60;;;;;;;;;;5031867;28;20419;-40
2022/12/26 09:36:02;;;;;;;13.52;6.55;;;;;;;;;;5032123;28;20036;-40
2022/12/26 09:38:29;;;;;;;11.93;6.85;;;;;;;;;;5031951;28;20385;-40
2022/12/26 09:41:12;;;;;;;13.60;7.60;;;;;;;;;;5031746;28;20025;-41
2022/12/26 09:43:38;;;;;;;13.65;7.03;;;;;;;;;;5032079;28;20137;-40
2022/12/26 09:46:20;;;;;;;10.27;4.80;;;;;;;;;;5031597;28;20144;-40
2022/12/26 09:48:51;;;;;;;8.10;5.70;;;;;;;;;;5031445;28;20124;-40
2022/12/26 09:51:17;;;;;;;21.60;8.07;;;;;;;;;;5031176;28;20033;-40
2022/12/26 09:53:46;;;;;;;16.63;8.23;;;;;;;;;;5031547;28;20592;-47
2022/12/26 09:56:13;;;;;;;16.40;7.68;;;;;;;;;;5031774;28;20022;-40
2022/12/26 09:58:56;;;;;;;19.42;7.90;;;;;;;;;;5031447;28;20052;-40
2022/12/26 10:01:27;;;;;;;13.85;6.22;;;;;;;;;;5031423;28;20152;-40
2022/12/26 10:03:55;;;;;;;14.38;6.80;;;;;;;;;;5031485;28;20044;-40
2022/12/26 10:06:22;;;;;;;16.75;8.00;;;;;;;;;;5031539;28;20064;-40
2022/12/26 10:08:47;;;;;;;16.77;7.65;;;;;;;;;;5031254;28;20489;-40
2022/12/26 10:11:29;;;;;;;15.25;7.07;;;;;;;;;;5031314;28;20056;-41
2022/12/26 10:14:10;;;;;;;16.83;6.80;;;;;;;;;;5031270;28;20041;-40
2022/12/26 10:16:48;;;;;;;11.02;5.70;;;;;;;;;;5031565;28;20025;-40
2022/12/26 10:19:13;;;;;;;13.25;5.72;;;;;;;;;;5031310;28;20056;-40
2022/12/26 10:21:50;;;;;;;11.05;5.20;;;;;;;;;;5031112;28;20447;-40
2022/12/26 10:24:17;;;;;;;10.18;5.25;;;;;;;;;;5013597;28;20044;-41
2022/12/26 10:26:46;;;;;;;15.07;9.05;;;;;;;;;;5031419;28;20036;-40
2022/12/26 10:29:47;;;;;;;16.25;7.18;;;;;;;;;;5031371;28;20033;-41
2022/12/26 10:32:35;;;;;;;12.23;6.43;;;;;;;;;;4970018;28;20037;-40
2022/12/26 10:35:09;;;;;;;11.73;6.32;;;;;;;;;;5002977;28;20045;-40
2022/12/26 10:37:37;;;;;;;14.98;7.60;;;;;;;;;;5031040;28;20033;-40
2022/12/26 10:40:02;;;;;;;15.75;7.32;;;;;;;;;;5031338;28;20384;-40
2022/12/26 10:42:39;;;;;;;15.88;6.22;;;;;;;;;;5030968;28;20017;-42
2022/12/26 10:45:19;;;;;;;15.82;6.50;;;;;;;;;;5031053;28;20033;-40
2022/12/26 10:47:51;;;;;;;19.27;8.32;;;;;;;;;;5031258;28;20079;-40
2022/12/26 10:50:22;;;;;;;21.70;9.23;;;;;;;;;;5031023;28;20033;-40
2022/12/26 10:52:48;;;;;;;11.05;7.20;;;;;;;;;;5030951;28;20095;-41
2022/12/26 10:55:15;;;;;;;17.83;7.53;;;;;;;;;;5030959;28;20021;-40
2022/12/26 10:57:41;;;;;;;16.20;5.40;;;;;;;;;;5030759;28;20044;-40
2022/12/26 11:00:27;;;;;;;12.52;6.43;;;;;;;;;;5030989;28;20096;-40
2022/12/26 11:03:09;;;;;;;17.38;6.65;;;;;;;;;;5034170;28;20072;-40
2022/12/26 11:05:40;;;;;;;13.55;7.35;;;;;;;;;;5034543;28;20037;-40
2022/12/26 11:08:08;;;;;;;10.88;6.97;;;;;;;;;;5034491;28;20048;-40
2022/12/26 11:10:34;;;;;;;14.20;6.68;;;;;;;;;;5034637;28;20148;-41
2022/12/26 11:13:01;;;;;;;14.07;7.25;;;;;;;;;;5034436;28;20603;-40
2022/12/26 11:15:30;;;;;;;15.45;8.68;;;;;;;;;;5034540;28;20025;-40
2022/12/26 11:18:06;;;;;;;12.95;6.82;;;;;;;;;;5034400;28;20577;-40
2022/12/26 11:20:31;;;;;;;15.55;7.22;;;;;;;;;;5034308;28;20022;-40
2022/12/26 11:23:32;;;;;;;11.77;7.05;;;;;;;;;;5034587;28;20021;-40
2022/12/26 11:25:59;;;;;;;14.18;8.32;;;;;;;;;;4973052;28;20085;-40
2022/12/26 11:28:32;;;;;;;16.13;8.00;;;;;;;;;;5022180;28;20092;-41
2022/12/26 11:30:59;;;;;;;16.05;7.95;;;;;;;;;;5016399;28;20033;-40
2022/12/26 11:33:45;;;;;;;16.52;7.05;;;;;;;;;;5034240;28;20384;-40
2022/12/26 11:36:10;;;;;;;14.50;7.50;;;;;;;;;;5015790;28;20558;-40
2022/12/26 11:38:59;;;;;;;14.50;6.55;;;;;;;;;;5033969;28;20048;-40
2022/12/26 11:41:30;;;;;;;14.23;6.88;;;;;;;;;;5025616;28;20049;-40
2022/12/26 11:44:13;;;;;;;13.70;6.68;;;;;;;;;;5033925;28;20543;-40
2022/12/26 11:46:59;;;;;;;17.63;7.88;;;;;;;;;;5033533;28;20589;-40
2022/12/26 11:49:36;;;;;;;13.45;7.45;;;;;;;;;;5033672;28;20055;-40
2022/12/26 11:52:21;;;;;;;13.80;7.00;;;;;;;;;;5033763;28;20057;-41
2022/12/26 11:54:48;;;;;;;14.18;6.95;;;;;;;;;;5033688;28;20124;-40
2022/12/26 11:57:19;;;;;;;11.85;6.18;;;;;;;;;;5033689;28;20044;-40
2022/12/26 11:59:44;;;;;;;13.15;6.55;;;;;;;;;;5033463;28;20026;-40
2022/12/26 12:02:19;;;;;;;16.38;7.40;;;;;;;;;;5033562;28;20028;-41
2022/12/26 12:04:45;;;;;;;11.95;6.40;;;;;;;;;;5033586;28;20419;-40
2022/12/26 12:07:29;;;;;;;16.92;8.25;;;;;;;;;;5033626;28;20025;-41
2022/12/26 12:10:19;;;;;;;13.95;6.65;;;;;;;;;;5033624;28;20435;-40
2022/12/26 12:12:48;;;;;;;20.70;8.23;;;;;;;;;;5024572;28;20055;-40
2022/12/26 12:15:16;;;;;;;17.02;7.40;;;;;;;;;;5033290;28;20441;-40
2022/12/26 12:18:00;;;;;;;11.77;6.70;;;;;;;;;;5015522;28;20081;-41
2022/12/26 12:20:32;;;;;;;16.02;7.00;;;;;;;;;;5033177;28;20037;-40
2022/12/26 12:23:08;;;;;;;10.18;6.65;;;;;;;;;;5033155;28;20167;-40
2022/12/26 12:25:35;;;;;;;15.85;7.32;;;;;;;;;;5033344;28;20375;-40
2022/12/26 12:28:27;;;;;;;15.52;7.32;;;;;;;;;;5033083;28;20040;-40
2022/12/26 12:31:11;;;;;;;16.17;7.25;;;;;;;;;;5015213;28;20025;-40
2022/12/26 12:33:37;;;;;;;11.95;8.30;;;;;;;;;;5032964;28;20029;-40
2022/12/26 12:36:07;;;;;;;19.77;7.30;;;;;;;;;;5032883;28;20079;-41
2022/12/26 12:38:41;;;;;;;15.18;6.85;;;;;;;;;;5032814;28;20026;-40
2022/12/26 12:41:19;;;;;;;10.38;5.70;;;;;;;;;;5032908;28;20090;-41
2022/12/26 12:43:53;;;;;;;18.95;9.13;;;;;;;;;;5032947;28;20104;-40
2022/12/26 12:46:25;;;;;;;13.55;8.13;;;;;;;;;;5032783;28;20096;-40
2022/12/26 12:49:06;;;;;;;15.35;7.22;;;;;;;;;;5032609;28;20053;-40
2022/12/26 12:51:36;;;;;;;15.60;8.07;;;;;;;;;;5032760;28;20029;-40
2022/12/26 12:54:07;;;;;;;14.23;8.55;;;;;;;;;;5032640;28;20017;-40
2022/12/26 12:56:36;;;;;;;19.17;8.05;;;;;;;;;;5032506;28;20369;-40
2022/12/26 12:59:09;;;;;;;12.77;8.15;;;;;;;;;;5032504;28;20032;-41
2022/12/26 13:01:38;;;;;;;16.33;8.32;;;;;;;;;;5032446;28;20039;-40
2022/12/26 13:04:13;;;;;;;12.30;7.60;;;;;;;;;;5032396;28;20056;-40
2022/12/26 13:06:44;;;;;;;24.60;8.98;;;;;;;;;;5032564;28;20068;-41
2022/12/26 13:09:19;;;;;;;13.73;7.95;;;;;;;;;;5032225;28;20091;-40
2022/12/26 13:11:47;;;;;;;16.48;8.27;;;;;;;;;;5032121;28;20057;-41
2022/12/26 13:14:31;;;;;;;18.55;8.00;;;;;;;;;;5032197;28;20028;-41
2022/12/26 13:17:02;;;;;;;26.27;10.13;;;;;;;;;;5032183;28;20722;-40
2022/12/26 13:19:30;;;;;;;15.00;7.05;;;;;;;;;;5014365;28;20108;-40
2022/12/26 13:22:01;;;;;;;15.23;8.95;;;;;;;;;;5032121;28;20104;-40
2022/12/26 13:24:39;;;;;;;18.55;7.95;;;;;;;;;;5031877;28;20033;-40
2022/12/26 13:27:04;;;;;;;20.88;7.60;;;;;;;;;;5031946;28;20037;-41
2022/12/26 13:29:30;;;;;;;19.15;9.07;;;;;;;;;;5032118;28;20032;-40
2022/12/26 13:31:57;;;;;;;18.52;8.43;;;;;;;;;;5014195;28;20464;-40
2022/12/26 13:34:22;;;;;;;21.38;8.07;;;;;;;;;;5031657;28;20079;-41
2022/12/26 13:36:49;;;;;;;16.67;7.35;;;;;;;;;;5032089;28;20029;-41
2022/12/26 13:39:22;;;;;;;17.67;8.38;;;;;;;;;;5031732;28;20105;-41
2022/12/26 13:44:31;;;;;;;;;;;;;;;;;;5032396;28;20658;-40
2022/12/26 13:46:58;;;;;;;20.08;6.63;;;;;;;;;;5031372;28;19928;-40
2022/12/26 13:49:23;;;;;;;16.30;6.60;;;;;;;;;;5031462;28;20037;-40
2022/12/26 13:51:49;;;;;;;15.00;8.13;;;;;;;;;;5031669;28;20030;-40
2022/12/26 13:54:15;;;;;;;19.40;8.75;;;;;;;;;;5031584;28;20037;-41
2022/12/26 13:56:41;;;;;;;18.23;8.20;;;;;;;;;;5031394;28;20554;-40
2022/12/26 13:59:06;;;;;;;15.50;8.50;;;;;;;;;;5031432;28;20025;-40
2022/12/26 14:01:41;;;;;;;11.07;6.05;;;;;;;;;;5031385;28;20067;-41
2022/12/26 14:04:15;;;;;;;16.33;7.78;;;;;;;;;;5031507;28;20492;-40
2022/12/26 14:06:49;;;;;;;16.52;9.63;;;;;;;;;;5031291;28;20040;-40
2022/12/26 14:09:33;;;;;;;13.98;8.65;;;;;;;;;;5031562;28;20067;-40
2022/12/26 14:12:08;;;;;;;16.60;7.68;;;;;;;;;;5031484;28;20025;-40
2022/12/26 14:14:44;;;;;;;22.52;9.48;;;;;;;;;;5031288;28;20026;-40
2022/12/26 14:17:33;;;;;;;16.38;8.52;;;;;;;;;;5031337;28;20057;-40
2022/12/26 14:20:02;;;;;;;16.30;8.13;;;;;;;;;;5031551;28;20044;-41
2022/12/26 14:22:33;;;;;;;12.25;8.02;;;;;;;;;;5031174;28;20025;-40
2022/12/26 14:25:02;;;;;;;14.43;6.60;;;;;;;;;;5031294;28;20037;-40
2022/12/26 14:27:33;;;;;;;10.02;7.57;;;;;;;;;;5031123;28;20034;-41
2022/12/26 14:30:16;;;;;;;12.50;6.97;;;;;;;;;;5031348;28;20068;-41
2022/12/26 14:33:00;;;;;;;19.30;8.68;;;;;;;;;;5031093;28;20041;-41
2022/12/26 14:35:52;;;;;;;19.25;7.45;;;;;;;;;;5031113;28;20080;-41
2022/12/26 14:38:17;;;;;;;9.93;5.68;;;;;;;;;;5035332;28;20035;-41
2022/12/26 14:44:07;;;;;;;10.82;6.72;;;;;;;;;;5029943;28;20424;-41
2022/12/26 14:46:37;;;;;;;13.10;6.47;;;;;;;;;;5034871;28;20432;-41
2022/12/26 14:49:23;;;;;;;15.13;7.10;;;;;;;;;;5034805;28;20045;-40
2022/12/26 14:51:49;;;;;;;14.68;7.25;;;;;;;;;;5017151;28;20037;-40
2022/12/26 14:54:18;;;;;;;14.13;7.75;;;;;;;;;;5034876;28;20035;-41
2022/12/26 14:56:44;;;;;;;13.38;7.50;;;;;;;;;;5034756;28;20025;-41
2022/12/26 14:59:25;;;;;;;17.23;6.78;;;;;;;;;;5034752;28;20534;-40
2022/12/26 15:01:59;;;;;;;14.40;7.82;;;;;;;;;;5034762;28;20033;-40
2022/12/26 15:04:31;;;;;;;15.32;7.20;;;;;;;;;;5034625;28;20061;-40
2022/12/26 15:07:15;;;;;;;14.40;7.47;;;;;;;;;;5034567;28;20101;-41
2022/12/26 15:09:40;;;;;;;16.48;8.38;;;;;;;;;;5034441;28;20041;-41
2022/12/26 15:12:11;;;;;;;19.67;8.68;;;;;;;;;;5034828;28;20040;-41
2022/12/26 15:14:43;;;;;;;13.07;7.32;;;;;;;;;;5034415;28;20492;-41
2022/12/26 15:17:08;;;;;;;18.00;8.60;;;;;;;;;;5034557;28;20095;-40
2022/12/26 15:20:03;;;;;;;20.80;8.55;;;;;;;;;;5034787;28;20460;-40
2022/12/26 15:22:29;;;;;;;20.85;8.55;;;;;;;;;;5021043;28;20033;-41
2022/12/26 15:25:00;;;;;;;17.13;9.02;;;;;;;;;;5034318;28;20021;-41
2022/12/26 15:27:34;;;;;;;16.27;7.28;;;;;;;;;;5034066;28;20060;-41
2022/12/26 15:30:18;;;;;;;16.02;7.95;;;;;;;;;;5034170;28;20033;-41
2022/12/26 15:32:51;;;;;;;16.88;8.13;;;;;;;;;;5034082;28;20033;-41
2022/12/26 15:35:22;;;;;;;14.07;5.70;;;;;;;;;;5034045;28;20017;-41
2022/12/26 15:37:58;;;;;;;13.52;6.15;;;;;;;;;;5033932;28;20056;-41
2022/12/26 15:40:29;;;;;;;11.88;6.75;;;;;;;;;;5034010;28;20029;-41
2022/12/26 15:43:09;;;;;;;17.25;7.13;;;;;;;;;;5033991;28;20029;-41
2022/12/26 15:45:49;;;;;;;13.85;6.70;;;;;;;;;;5033710;28;20076;-40
2022/12/26 15:48:25;;;;;;;13.48;6.68;;;;;;;;;;5032518;28;20805;-41
2022/12/26 15:51:00;;;;;;;28.85;7.13;;;;;;;;;;5033769;28;20048;-40
2022/12/26 15:53:44;;;;;;;9.13;5.38;;;;;;;;;;5015991;28;20120;-41
2022/12/26 15:56:21;;;;;;;10.73;6.15;;;;;;;;;;5015988;28;20112;-40
2022/12/26 15:58:47;;;;;;;11.23;6.50;;;;;;;;;;5033526;28;20037;-41
2022/12/26 16:01:12;;;;;;;12.82;7.80;;;;;;;;;;5033916;28;20171;-40
2022/12/26 16:03:53;;;;;;;12.43;5.97;;;;;;;;;;5015719;28;20040;-40
2022/12/26 16:06:24;;;;;;;19.98;6.28;;;;;;;;;;5033860;28;20033;-41
2022/12/26 16:09:03;;;;;;;12.13;6.40;;;;;;;;;;5033409;28;20033;-41
2022/12/26 16:11:30;;;;;;;10.73;5.50;;;;;;;;;;5033299;28;20067;-40
2022/12/26 16:13:57;;;;;;;16.55;7.40;;;;;;;;;;5033438;28;20103;-41
2022/12/26 16:16:29;;;;;;;15.65;6.13;;;;;;;;;;5033372;28;20033;-41
2022/12/26 16:18:54;;;;;;;12.23;5.97;;;;;;;;;;5033573;28;20059;-41
2022/12/26 16:24:07;;;;;;;10.60;6.53;;;;;;;;;;5033249;28;20029;-40
2022/12/26 16:26:36;;;;;;;11.23;6.30;;;;;;;;;;5033116;28;20304;-41
2022/12/26 16:29:03;;;;;;;13.18;5.85;;;;;;;;;;5033030;28;20387;-41
2022/12/26 16:31:31;;;;;;;14.75;7.57;;;;;;;;;;5032898;28;20021;-40
2022/12/26 16:33:57;;;;;;;16.23;5.78;;;;;;;;;;5033024;28;20039;-41
2022/12/26 16:36:24;;;;;;;8.60;5.03;;;;;;;;;;5033018;28;20022;-40
2022/12/26 16:38:50;;;;;;;11.82;6.35;;;;;;;;;;5032820;28;20554;-40
2022/12/26 16:41:23;;;;;;;12.00;5.85;;;;;;;;;;5033202;28;20053;-40
2022/12/26 16:43:49;;;;;;;11.32;5.97;;;;;;;;;;5033102;28;20420;-40
2022/12/26 16:46:17;;;;;;;15.50;7.03;;;;;;;;;;5032760;28;20053;-40
2022/12/26 16:48:44;;;;;;;13.27;6.15;;;;;;;;;;5032606;28;20051;-41
2022/12/26 16:51:33;;;;;;;18.45;6.68;;;;;;;;;;5032729;28;20030;-41
2022/12/26 16:54:15;;;;;;;11.07;6.28;;;;;;;;;;5024343;28;20029;-41